MET'MAP v2.0
soon released !

Expected late october,
this new version will be
more efficient, smarter,
and hosted on a brand new
server x3 powerfull...
...and still free !


Not compatible ?
Try the mobile version !

LOG IN : | Subscribe | Disclaimer | Who is Orbifly ? |
ICAO code :

TAF - ETSA Landsberg-Lech AB - 20 Nov 2019 12:47 UTC
Data Sources :     NOAA   


- Airport Elevation : 2044 ft
- No reported NOTAMs.


ETSA - Landsberg-Lech AB

Latest METAR recorded : 2015/08/11 07:20 ETSA 110720Z 26005KT 7000 FEW015 SCT080 21/17 Q1018 WHT BLU TEMPO WHT
Expired Forecast.

Source NOAA


MET'MAP, your aeronautical weather chart ! - Copyright ORBIFLY December 2007

Programming & Development : Alexandra Zaïnal
Co-Developer : Marc-Olivier Méhu
Technical & hardware support : Manuel Goepfert
Concept & Financing : Baudouin d'Aumeries